sensor_id;sensor_type;location;lat;lon;timestamp;P1;durP1;ratioP1;P2;durP2;ratioP2
37593;SDS011;23441;50.856;6.076;2023-04-06T00:01:47;22.60;;;12.13;;
37593;SDS011;23441;50.856;6.076;2023-04-06T00:04:12;23.17;;;11.53;;
37593;SDS011;23441;50.856;6.076;2023-04-06T00:06:38;23.30;;;12.63;;
37593;SDS011;23441;50.856;6.076;2023-04-06T00:09:04;21.05;;;12.90;;
37593;SDS011;23441;50.856;6.076;2023-04-06T00:11:29;27.63;;;13.53;;
37593;SDS011;23441;50.856;6.076;2023-04-06T00:13:55;22.00;;;13.80;;
37593;SDS011;23441;50.856;6.076;2023-04-06T00:16:21;20.50;;;12.90;;
37593;SDS011;23441;50.856;6.076;2023-04-06T00:18:46;26.80;;;12.93;;
37593;SDS011;23441;50.856;6.076;2023-04-06T00:21:13;23.97;;;13.27;;
37593;SDS011;23441;50.856;6.076;2023-04-06T00:23:39;23.07;;;12.80;;
37593;SDS011;23441;50.856;6.076;2023-04-06T00:26:05;24.13;;;13.67;;
37593;SDS011;23441;50.856;6.076;2023-04-06T00:28:31;26.47;;;13.77;;
37593;SDS011;23441;50.856;6.076;2023-04-06T00:30:57;25.03;;;12.33;;
37593;SDS011;23441;50.856;6.076;2023-04-06T00:33:22;22.67;;;12.37;;
37593;SDS011;23441;50.856;6.076;2023-04-06T00:35:48;21.97;;;13.07;;
37593;SDS011;23441;50.856;6.076;2023-04-06T00:38:14;20.27;;;12.30;;
37593;SDS011;23441;50.856;6.076;2023-04-06T00:40:42;23.90;;;12.53;;
37593;SDS011;23441;50.856;6.076;2023-04-06T00:43:09;23.23;;;12.43;;
37593;SDS011;23441;50.856;6.076;2023-04-06T00:45:37;28.03;;;13.60;;
37593;SDS011;23441;50.856;6.076;2023-04-06T00:48:04;25.10;;;13.90;;
37593;SDS011;23441;50.856;6.076;2023-04-06T00:50:31;21.43;;;12.90;;
37593;SDS011;23441;50.856;6.076;2023-04-06T00:52:56;24.60;;;12.70;;
37593;SDS011;23441;50.856;6.076;2023-04-06T00:55:23;24.87;;;13.27;;
37593;SDS011;23441;50.856;6.076;2023-04-06T00:57:48;22.30;;;12.47;;
37593;SDS011;23441;50.856;6.076;2023-04-06T01:00:16;23.10;;;12.23;;
37593;SDS011;23441;50.856;6.076;2023-04-06T01:02:42;23.03;;;12.13;;
37593;SDS011;23441;50.856;6.076;2023-04-06T01:05:09;24.30;;;12.67;;
37593;SDS011;23441;50.856;6.076;2023-04-06T01:07:35;21.53;;;12.77;;
37593;SDS011;23441;50.856;6.076;2023-04-06T01:10:01;23.97;;;12.40;;
37593;SDS011;23441;50.856;6.076;2023-04-06T01:12:27;23.23;;;12.20;;
37593;SDS011;23441;50.856;6.076;2023-04-06T01:14:53;20.50;;;11.97;;
37593;SDS011;23441;50.856;6.076;2023-04-06T01:17:19;20.47;;;11.63;;
37593;SDS011;23441;50.856;6.076;2023-04-06T01:19:45;23.77;;;11.87;;
37593;SDS011;23441;50.856;6.076;2023-04-06T01:22:16;20.60;;;12.67;;
37593;SDS011;23441;50.856;6.076;2023-04-06T01:24:43;21.60;;;11.60;;
37593;SDS011;23441;50.856;6.076;2023-04-06T01:27:09;27.40;;;12.97;;
37593;SDS011;23441;50.856;6.076;2023-04-06T01:29:34;21.30;;;11.77;;
37593;SDS011;23441;50.856;6.076;2023-04-06T01:32:00;24.83;;;12.60;;
37593;SDS011;23441;50.856;6.076;2023-04-06T01:34:26;29.60;;;12.43;;
37593;SDS011;23441;50.856;6.076;2023-04-06T01:36:52;24.40;;;12.53;;
37593;SDS011;23441;50.856;6.076;2023-04-06T01:39:17;19.80;;;11.73;;
37593;SDS011;23441;50.856;6.076;2023-04-06T01:41:44;22.67;;;11.87;;
37593;SDS011;23441;50.856;6.076;2023-04-06T01:44:12;22.73;;;11.93;;
37593;SDS011;23441;50.856;6.076;2023-04-06T01:46:38;25.20;;;13.30;;
37593;SDS011;23441;50.856;6.076;2023-04-06T01:49:03;27.90;;;13.30;;
37593;SDS011;23441;50.856;6.076;2023-04-06T01:51:29;23.70;;;12.83;;
37593;SDS011;23441;50.856;6.076;2023-04-06T01:53:55;24.87;;;11.97;;
37593;SDS011;23441;50.856;6.076;2023-04-06T01:56:21;24.93;;;12.47;;
37593;SDS011;23441;50.856;6.076;2023-04-06T01:58:47;23.13;;;12.53;;
37593;SDS011;23441;50.856;6.076;2023-04-06T02:01:12;24.50;;;12.93;;
37593;SDS011;23441;50.856;6.076;2023-04-06T02:03:38;24.90;;;12.23;;
37593;SDS011;23441;50.856;6.076;2023-04-06T02:06:03;21.40;;;12.33;;
37593;SDS011;23441;50.856;6.076;2023-04-06T02:08:30;26.37;;;12.77;;
37593;SDS011;23441;50.856;6.076;2023-04-06T02:10:55;23.33;;;12.47;;
37593;SDS011;23441;50.856;6.076;2023-04-06T02:13:21;23.17;;;11.57;;
37593;SDS011;23441;50.856;6.076;2023-04-06T02:15:46;21.70;;;11.17;;
37593;SDS011;23441;50.856;6.076;2023-04-06T02:18:12;22.30;;;12.47;;
37593;SDS011;23441;50.856;6.076;2023-04-06T02:20:38;21.00;;;10.77;;
37593;SDS011;23441;50.856;6.076;2023-04-06T02:23:03;27.87;;;11.80;;
37593;SDS011;23441;50.856;6.076;2023-04-06T02:25:29;19.83;;;10.73;;
37593;SDS011;23441;50.856;6.076;2023-04-06T02:27:55;18.87;;;11.33;;
37593;SDS011;23441;50.856;6.076;2023-04-06T02:30:20;20.40;;;11.60;;
37593;SDS011;23441;50.856;6.076;2023-04-06T02:32:46;20.67;;;11.17;;
37593;SDS011;23441;50.856;6.076;2023-04-06T02:35:11;18.83;;;11.97;;
37593;SDS011;23441;50.856;6.076;2023-04-06T02:37:37;22.13;;;12.57;;
37593;SDS011;23441;50.856;6.076;2023-04-06T02:40:03;23.27;;;12.40;;
37593;SDS011;23441;50.856;6.076;2023-04-06T02:42:29;20.63;;;11.93;;
37593;SDS011;23441;50.856;6.076;2023-04-06T02:44:55;21.60;;;12.63;;
37593;SDS011;23441;50.856;6.076;2023-04-06T02:47:20;23.87;;;12.50;;
37593;SDS011;23441;50.856;6.076;2023-04-06T02:49:46;23.43;;;12.57;;
37593;SDS011;23441;50.856;6.076;2023-04-06T02:52:11;21.63;;;11.90;;
37593;SDS011;23441;50.856;6.076;2023-04-06T02:54:37;21.83;;;13.07;;
37593;SDS011;23441;50.856;6.076;2023-04-06T02:57:03;21.00;;;11.33;;
37593;SDS011;23441;50.856;6.076;2023-04-06T02:59:28;20.53;;;11.70;;
37593;SDS011;23441;50.856;6.076;2023-04-06T03:01:54;20.37;;;12.07;;
37593;SDS011;23441;50.856;6.076;2023-04-06T03:04:20;25.43;;;12.07;;
37593;SDS011;23441;50.856;6.076;2023-04-06T03:06:47;20.67;;;11.57;;
37593;SDS011;23441;50.856;6.076;2023-04-06T03:09:13;24.47;;;12.83;;
37593;SDS011;23441;50.856;6.076;2023-04-06T03:11:39;24.03;;;12.07;;
37593;SDS011;23441;50.856;6.076;2023-04-06T03:14:04;29.27;;;12.50;;
37593;SDS011;23441;50.856;6.076;2023-04-06T03:16:30;23.50;;;12.33;;
37593;SDS011;23441;50.856;6.076;2023-04-06T03:18:56;19.23;;;11.43;;
37593;SDS011;23441;50.856;6.076;2023-04-06T03:21:21;24.20;;;12.03;;
37593;SDS011;23441;50.856;6.076;2023-04-06T03:23:47;21.20;;;12.97;;
37593;SDS011;23441;50.856;6.076;2023-04-06T03:26:16;24.00;;;12.03;;
37593;SDS011;23441;50.856;6.076;2023-04-06T03:28:42;23.10;;;12.83;;
37593;SDS011;23441;50.856;6.076;2023-04-06T03:31:07;24.10;;;11.90;;
37593;SDS011;23441;50.856;6.076;2023-04-06T03:33:33;21.40;;;12.27;;
37593;SDS011;23441;50.856;6.076;2023-04-06T03:35:58;20.90;;;11.97;;
37593;SDS011;23441;50.856;6.076;2023-04-06T03:38:24;20.60;;;11.93;;
37593;SDS011;23441;50.856;6.076;2023-04-06T03:40:50;25.37;;;12.07;;
37593;SDS011;23441;50.856;6.076;2023-04-06T03:43:15;23.90;;;11.77;;
37593;SDS011;23441;50.856;6.076;2023-04-06T03:45:41;20.57;;;11.70;;
37593;SDS011;23441;50.856;6.076;2023-04-06T03:48:06;22.57;;;11.57;;
37593;SDS011;23441;50.856;6.076;2023-04-06T03:50:32;25.63;;;13.50;;
37593;SDS011;23441;50.856;6.076;2023-04-06T03:52:58;25.40;;;12.30;;
37593;SDS011;23441;50.856;6.076;2023-04-06T03:55:23;24.37;;;12.27;;
37593;SDS011;23441;50.856;6.076;2023-04-06T03:57:49;26.77;;;12.57;;
37593;SDS011;23441;50.856;6.076;2023-04-06T04:00:15;21.47;;;12.40;;
37593;SDS011;23441;50.856;6.076;2023-04-06T04:02:40;21.63;;;12.00;;
37593;SDS011;23441;50.856;6.076;2023-04-06T04:05:06;22.23;;;11.47;;
37593;SDS011;23441;50.856;6.076;2023-04-06T04:07:32;20.83;;;11.77;;
37593;SDS011;23441;50.856;6.076;2023-04-06T04:09:58;23.97;;;12.03;;
37593;SDS011;23441;50.856;6.076;2023-04-06T04:12:23;22.53;;;11.77;;
37593;SDS011;23441;50.856;6.076;2023-04-06T04:14:49;19.87;;;11.10;;
37593;SDS011;23441;50.856;6.076;2023-04-06T04:17:15;20.53;;;11.13;;
37593;SDS011;23441;50.856;6.076;2023-04-06T04:19:41;24.23;;;11.87;;
37593;SDS011;23441;50.856;6.076;2023-04-06T04:22:07;18.50;;;11.17;;
37593;SDS011;23441;50.856;6.076;2023-04-06T04:24:32;16.90;;;10.37;;
37593;SDS011;23441;50.856;6.076;2023-04-06T04:26:59;22.67;;;11.20;;
37593;SDS011;23441;50.856;6.076;2023-04-06T04:29:25;19.33;;;10.50;;
37593;SDS011;23441;50.856;6.076;2023-04-06T04:31:51;21.87;;;12.10;;
37593;SDS011;23441;50.856;6.076;2023-04-06T04:34:17;22.80;;;11.80;;
37593;SDS011;23441;50.856;6.076;2023-04-06T04:36:50;20.17;;;11.97;;
37593;SDS011;23441;50.856;6.076;2023-04-06T04:39:16;21.10;;;12.57;;
37593;SDS011;23441;50.856;6.076;2023-04-06T04:41:41;26.03;;;12.67;;
37593;SDS011;23441;50.856;6.076;2023-04-06T04:44:07;24.53;;;12.67;;
37593;SDS011;23441;50.856;6.076;2023-04-06T04:46:33;25.30;;;12.50;;
37593;SDS011;23441;50.856;6.076;2023-04-06T04:48:58;21.87;;;12.03;;
37593;SDS011;23441;50.856;6.076;2023-04-06T04:51:24;27.20;;;13.50;;
37593;SDS011;23441;50.856;6.076;2023-04-06T04:53:50;23.97;;;12.10;;
37593;SDS011;23441;50.856;6.076;2023-04-06T04:56:15;21.47;;;12.23;;
37593;SDS011;23441;50.856;6.076;2023-04-06T04:58:41;21.37;;;11.53;;
37593;SDS011;23441;50.856;6.076;2023-04-06T05:01:07;21.40;;;10.83;;
37593;SDS011;23441;50.856;6.076;2023-04-06T05:03:33;22.03;;;11.80;;
37593;SDS011;23441;50.856;6.076;2023-04-06T05:06:00;21.07;;;11.17;;
37593;SDS011;23441;50.856;6.076;2023-04-06T05:08:26;23.03;;;11.27;;
37593;SDS011;23441;50.856;6.076;2023-04-06T05:10:52;19.03;;;10.87;;
37593;SDS011;23441;50.856;6.076;2023-04-06T05:13:17;20.17;;;11.57;;
37593;SDS011;23441;50.856;6.076;2023-04-06T05:15:43;19.93;;;11.00;;
37593;SDS011;23441;50.856;6.076;2023-04-06T05:18:09;23.60;;;10.73;;
37593;SDS011;23441;50.856;6.076;2023-04-06T05:20:35;19.83;;;11.23;;
37593;SDS011;23441;50.856;6.076;2023-04-06T05:23:01;18.47;;;10.70;;
37593;SDS011;23441;50.856;6.076;2023-04-06T05:25:27;19.58;;;11.00;;
37593;SDS011;23441;50.856;6.076;2023-04-06T05:27:53;18.90;;;11.03;;
37593;SDS011;23441;50.856;6.076;2023-04-06T05:30:19;19.52;;;11.30;;
37593;SDS011;23441;50.856;6.076;2023-04-06T05:32:45;18.65;;;10.95;;
37593;SDS011;23441;50.856;6.076;2023-04-06T05:35:11;20.13;;;10.57;;
37593;SDS011;23441;50.856;6.076;2023-04-06T05:37:37;20.17;;;10.37;;
37593;SDS011;23441;50.856;6.076;2023-04-06T05:40:04;16.73;;;10.43;;
37593;SDS011;23441;50.856;6.076;2023-04-06T05:42:41;19.20;;;10.90;;
37593;SDS011;23441;50.856;6.076;2023-04-06T05:45:10;20.92;;;10.02;;
37593;SDS011;23441;50.856;6.076;2023-04-06T05:47:41;19.15;;;10.93;;
37593;SDS011;23441;50.856;6.076;2023-04-06T05:50:09;26.85;;;11.40;;
37593;SDS011;23441;50.856;6.076;2023-04-06T05:52:35;19.42;;;10.95;;
37593;SDS011;23441;50.856;6.076;2023-04-06T05:55:00;28.73;;;11.02;;
37593;SDS011;23441;50.856;6.076;2023-04-06T05:57:27;19.00;;;10.68;;
37593;SDS011;23441;50.856;6.076;2023-04-06T05:59:52;19.63;;;11.02;;
37593;SDS011;23441;50.856;6.076;2023-04-06T06:02:18;20.88;;;10.57;;
37593;SDS011;23441;50.856;6.076;2023-04-06T06:04:44;18.30;;;11.07;;
37593;SDS011;23441;50.856;6.076;2023-04-06T06:07:09;19.70;;;10.57;;
37593;SDS011;23441;50.856;6.076;2023-04-06T06:09:35;17.85;;;10.65;;
37593;SDS011;23441;50.856;6.076;2023-04-06T06:12:00;18.88;;;10.55;;
37593;SDS011;23441;50.856;6.076;2023-04-06T06:14:26;18.58;;;10.85;;
37593;SDS011;23441;50.856;6.076;2023-04-06T06:16:53;22.45;;;10.77;;
37593;SDS011;23441;50.856;6.076;2023-04-06T06:19:19;17.00;;;9.90;;
37593;SDS011;23441;50.856;6.076;2023-04-06T06:21:45;20.52;;;10.90;;
37593;SDS011;23441;50.856;6.076;2023-04-06T06:24:11;19.50;;;10.57;;
37593;SDS011;23441;50.856;6.076;2023-04-06T06:26:36;21.40;;;11.40;;
37593;SDS011;23441;50.856;6.076;2023-04-06T06:29:04;19.33;;;10.70;;
37593;SDS011;23441;50.856;6.076;2023-04-06T06:31:31;17.35;;;11.65;;
37593;SDS011;23441;50.856;6.076;2023-04-06T06:33:57;22.30;;;11.52;;
37593;SDS011;23441;50.856;6.076;2023-04-06T06:36:22;21.80;;;12.57;;
37593;SDS011;23441;50.856;6.076;2023-04-06T06:38:48;20.20;;;12.25;;
37593;SDS011;23441;50.856;6.076;2023-04-06T06:41:13;23.48;;;12.43;;
37593;SDS011;23441;50.856;6.076;2023-04-06T06:43:39;19.50;;;12.25;;
37593;SDS011;23441;50.856;6.076;2023-04-06T06:46:05;18.17;;;11.65;;
37593;SDS011;23441;50.856;6.076;2023-04-06T06:48:31;23.48;;;13.27;;
37593;SDS011;23441;50.856;6.076;2023-04-06T06:50:56;21.35;;;12.48;;
37593;SDS011;23441;50.856;6.076;2023-04-06T06:53:22;19.15;;;12.27;;
37593;SDS011;23441;50.856;6.076;2023-04-06T06:55:48;25.25;;;12.23;;
37593;SDS011;23441;50.856;6.076;2023-04-06T06:58:14;27.75;;;14.50;;
37593;SDS011;23441;50.856;6.076;2023-04-06T07:00:40;29.95;;;14.88;;
37593;SDS011;23441;50.856;6.076;2023-04-06T07:03:06;20.63;;;11.30;;
37593;SDS011;23441;50.856;6.076;2023-04-06T07:05:32;18.80;;;10.25;;
37593;SDS011;23441;50.856;6.076;2023-04-06T07:07:57;16.60;;;10.32;;
37593;SDS011;23441;50.856;6.076;2023-04-06T07:10:23;22.48;;;10.52;;
37593;SDS011;23441;50.856;6.076;2023-04-06T07:12:49;23.75;;;11.00;;
37593;SDS011;23441;50.856;6.076;2023-04-06T07:15:14;17.42;;;10.50;;
37593;SDS011;23441;50.856;6.076;2023-04-06T07:17:41;21.27;;;10.85;;
37593;SDS011;23441;50.856;6.076;2023-04-06T07:20:06;21.65;;;11.50;;
37593;SDS011;23441;50.856;6.076;2023-04-06T07:22:32;20.77;;;11.27;;
37593;SDS011;23441;50.856;6.076;2023-04-06T07:24:58;17.80;;;10.20;;
37593;SDS011;23441;50.856;6.076;2023-04-06T07:27:23;22.00;;;11.95;;
37593;SDS011;23441;50.856;6.076;2023-04-06T07:29:49;23.50;;;12.55;;
37593;SDS011;23441;50.856;6.076;2023-04-06T07:32:15;26.52;;;13.13;;
37593;SDS011;23441;50.856;6.076;2023-04-06T07:34:40;21.33;;;11.30;;
37593;SDS011;23441;50.856;6.076;2023-04-06T07:37:06;20.98;;;10.45;;
37593;SDS011;23441;50.856;6.076;2023-04-06T07:39:32;22.15;;;10.43;;
37593;SDS011;23441;50.856;6.076;2023-04-06T07:41:59;19.52;;;10.20;;
37593;SDS011;23441;50.856;6.076;2023-04-06T07:44:25;21.05;;;11.05;;
37593;SDS011;23441;50.856;6.076;2023-04-06T07:46:51;21.35;;;10.35;;
37593;SDS011;23441;50.856;6.076;2023-04-06T07:49:16;20.70;;;10.52;;
37593;SDS011;23441;50.856;6.076;2023-04-06T07:51:42;19.65;;;10.07;;
37593;SDS011;23441;50.856;6.076;2023-04-06T07:54:08;18.13;;;10.15;;
37593;SDS011;23441;50.856;6.076;2023-04-06T07:56:34;17.05;;;10.02;;
37593;SDS011;23441;50.856;6.076;2023-04-06T07:58:59;19.30;;;10.70;;
37593;SDS011;23441;50.856;6.076;2023-04-06T08:01:25;20.42;;;10.10;;
37593;SDS011;23441;50.856;6.076;2023-04-06T08:03:52;21.25;;;9.68;;
37593;SDS011;23441;50.856;6.076;2023-04-06T08:06:17;20.63;;;10.50;;
37593;SDS011;23441;50.856;6.076;2023-04-06T08:08:43;18.92;;;10.23;;
37593;SDS011;23441;50.856;6.076;2023-04-06T08:11:09;23.25;;;10.80;;
37593;SDS011;23441;50.856;6.076;2023-04-06T08:13:34;18.65;;;10.27;;
37593;SDS011;23441;50.856;6.076;2023-04-06T08:16:00;18.98;;;10.95;;
37593;SDS011;23441;50.856;6.076;2023-04-06T08:18:26;22.45;;;10.95;;
37593;SDS011;23441;50.856;6.076;2023-04-06T08:20:52;20.25;;;10.23;;
37593;SDS011;23441;50.856;6.076;2023-04-06T08:23:19;17.27;;;10.05;;
37593;SDS011;23441;50.856;6.076;2023-04-06T08:25:45;19.75;;;9.73;;
37593;SDS011;23441;50.856;6.076;2023-04-06T08:28:10;19.23;;;10.20;;
37593;SDS011;23441;50.856;6.076;2023-04-06T08:30:36;24.17;;;11.27;;
37593;SDS011;23441;50.856;6.076;2023-04-06T08:33:04;23.10;;;10.95;;
37593;SDS011;23441;50.856;6.076;2023-04-06T08:35:30;17.08;;;10.30;;
37593;SDS011;23441;50.856;6.076;2023-04-06T08:37:56;21.98;;;11.30;;
37593;SDS011;23441;50.856;6.076;2023-04-06T08:40:22;20.58;;;11.27;;
37593;SDS011;23441;50.856;6.076;2023-04-06T08:42:55;20.25;;;11.38;;
37593;SDS011;23441;50.856;6.076;2023-04-06T08:45:21;20.13;;;10.57;;
37593;SDS011;23441;50.856;6.076;2023-04-06T08:47:51;18.48;;;10.13;;
37593;SDS011;23441;50.856;6.076;2023-04-06T08:50:20;23.00;;;10.10;;
37593;SDS011;23441;50.856;6.076;2023-04-06T08:52:48;20.95;;;10.13;;
37593;SDS011;23441;50.856;6.076;2023-04-06T08:55:15;16.88;;;10.13;;
37593;SDS011;23441;50.856;6.076;2023-04-06T08:57:41;22.48;;;10.98;;
37593;SDS011;23441;50.856;6.076;2023-04-06T09:00:09;20.55;;;9.88;;
37593;SDS011;23441;50.856;6.076;2023-04-06T09:02:38;22.90;;;10.55;;
37593;SDS011;23441;50.856;6.076;2023-04-06T09:05:06;18.95;;;10.48;;
37593;SDS011;23441;50.856;6.076;2023-04-06T09:07:33;21.52;;;10.23;;
37593;SDS011;23441;50.856;6.076;2023-04-06T09:10:00;18.20;;;9.68;;
37593;SDS011;23441;50.856;6.076;2023-04-06T09:14:52;21.35;;;10.82;;
37593;SDS011;23441;50.856;6.076;2023-04-06T09:17:22;20.33;;;9.93;;
37593;SDS011;23441;50.856;6.076;2023-04-06T09:19:48;17.48;;;9.07;;
37593;SDS011;23441;50.856;6.076;2023-04-06T09:22:15;20.38;;;9.88;;
37593;SDS011;23441;50.856;6.076;2023-04-06T09:24:43;20.98;;;10.43;;
37593;SDS011;23441;50.856;6.076;2023-04-06T09:27:14;20.92;;;10.02;;
37593;SDS011;23441;50.856;6.076;2023-04-06T09:29:40;19.77;;;10.43;;
37593;SDS011;23441;50.856;6.076;2023-04-06T09:32:07;21.50;;;10.30;;
37593;SDS011;23441;50.856;6.076;2023-04-06T09:34:40;20.67;;;10.65;;
37593;SDS011;23441;50.856;6.076;2023-04-06T09:37:12;18.58;;;11.05;;
37593;SDS011;23441;50.856;6.076;2023-04-06T09:39:42;20.50;;;10.68;;
37593;SDS011;23441;50.856;6.076;2023-04-06T09:42:07;21.27;;;11.00;;
37593;SDS011;23441;50.856;6.076;2023-04-06T09:44:33;19.60;;;11.30;;
37593;SDS011;23441;50.856;6.076;2023-04-06T09:46:59;24.33;;;11.95;;
37593;SDS011;23441;50.856;6.076;2023-04-06T09:49:30;22.35;;;11.73;;
37593;SDS011;23441;50.856;6.076;2023-04-06T09:51:59;23.88;;;12.20;;
37593;SDS011;23441;50.856;6.076;2023-04-06T09:54:30;24.30;;;12.55;;
37593;SDS011;23441;50.856;6.076;2023-04-06T09:59:47;23.95;;;12.18;;
37593;SDS011;23441;50.856;6.076;2023-04-06T10:05:50;21.45;;;11.40;;
37593;SDS011;23441;50.856;6.076;2023-04-06T10:08:20;22.55;;;11.45;;
37593;SDS011;23441;50.856;6.076;2023-04-06T10:10:52;20.08;;;11.13;;
37593;SDS011;23441;50.856;6.076;2023-04-06T10:13:19;20.10;;;11.18;;
37593;SDS011;23441;50.856;6.076;2023-04-06T10:15:45;23.13;;;11.65;;
37593;SDS011;23441;50.856;6.076;2023-04-06T10:18:11;21.30;;;11.63;;
37593;SDS011;23441;50.856;6.076;2023-04-06T10:20:46;17.08;;;10.13;;
37593;SDS011;23441;50.856;6.076;2023-04-06T10:25:58;18.20;;;9.82;;
37593;SDS011;23441;50.856;6.076;2023-04-06T10:28:25;19.13;;;9.80;;
37593;SDS011;23441;50.856;6.076;2023-04-06T10:30:58;22.40;;;10.32;;
37593;SDS011;23441;50.856;6.076;2023-04-06T10:33:25;17.70;;;9.90;;
37593;SDS011;23441;50.856;6.076;2023-04-06T10:35:52;17.08;;;9.32;;
37593;SDS011;23441;50.856;6.076;2023-04-06T10:38:19;16.52;;;9.48;;
37593;SDS011;23441;50.856;6.076;2023-04-06T10:40:49;14.65;;;8.52;;
37593;SDS011;23441;50.856;6.076;2023-04-06T10:43:22;13.30;;;8.35;;
37593;SDS011;23441;50.856;6.076;2023-04-06T10:45:54;13.52;;;8.30;;
37593;SDS011;23441;50.856;6.076;2023-04-06T10:48:21;15.60;;;8.38;;
37593;SDS011;23441;50.856;6.076;2023-04-06T10:50:49;16.13;;;8.80;;
37593;SDS011;23441;50.856;6.076;2023-04-06T10:53:26;13.88;;;8.30;;
37593;SDS011;23441;50.856;6.076;2023-04-06T10:55:53;13.60;;;8.75;;
37593;SDS011;23441;50.856;6.076;2023-04-06T10:58:20;16.15;;;8.35;;
37593;SDS011;23441;50.856;6.076;2023-04-06T11:00:50;18.95;;;9.25;;
37593;SDS011;23441;50.856;6.076;2023-04-06T11:03:16;15.82;;;8.82;;
37593;SDS011;23441;50.856;6.076;2023-04-06T11:05:45;15.27;;;8.70;;
37593;SDS011;23441;50.856;6.076;2023-04-06T11:08:25;16.38;;;8.77;;
37593;SDS011;23441;50.856;6.076;2023-04-06T11:11:08;15.27;;;8.30;;
37593;SDS011;23441;50.856;6.076;2023-04-06T11:13:38;15.95;;;9.18;;
37593;SDS011;23441;50.856;6.076;2023-04-06T11:16:51;15.60;;;8.18;;
37593;SDS011;23441;50.856;6.076;2023-04-06T11:18:59;18.20;;;8.60;;
37593;SDS011;23441;50.856;6.076;2023-04-06T11:24:11;14.73;;;8.70;;
37593;SDS011;23441;50.856;6.076;2023-04-06T11:29:06;14.63;;;8.77;;
37593;SDS011;23441;50.856;6.076;2023-04-06T11:31:37;15.23;;;9.10;;
37593;SDS011;23441;50.856;6.076;2023-04-06T11:34:10;14.52;;;8.18;;
37593;SDS011;23441;50.856;6.076;2023-04-06T11:36:46;19.08;;;10.00;;
37593;SDS011;23441;50.856;6.076;2023-04-06T11:39:17;17.23;;;9.70;;
37593;SDS011;23441;50.856;6.076;2023-04-06T11:41:47;15.13;;;9.50;;
37593;SDS011;23441;50.856;6.076;2023-04-06T11:44:14;16.42;;;9.55;;
37593;SDS011;23441;50.856;6.076;2023-04-06T11:46:39;15.75;;;9.45;;
37593;SDS011;23441;50.856;6.076;2023-04-06T11:49:05;14.73;;;9.68;;
37593;SDS011;23441;50.856;6.076;2023-04-06T11:51:34;16.10;;;9.93;;
37593;SDS011;23441;50.856;6.076;2023-04-06T11:54:01;16.00;;;8.95;;
37593;SDS011;23441;50.856;6.076;2023-04-06T11:56:28;16.70;;;10.23;;
37593;SDS011;23441;50.856;6.076;2023-04-06T11:58:55;18.27;;;10.82;;
37593;SDS011;23441;50.856;6.076;2023-04-06T12:01:21;18.20;;;10.07;;
37593;SDS011;23441;50.856;6.076;2023-04-06T12:03:48;17.33;;;10.18;;
37593;SDS011;23441;50.856;6.076;2023-04-06T12:06:14;16.63;;;10.32;;
37593;SDS011;23441;50.856;6.076;2023-04-06T12:08:40;16.83;;;10.30;;
37593;SDS011;23441;50.856;6.076;2023-04-06T12:11:06;17.75;;;10.93;;
37593;SDS011;23441;50.856;6.076;2023-04-06T12:13:32;14.68;;;10.07;;
37593;SDS011;23441;50.856;6.076;2023-04-06T12:15:57;19.88;;;10.98;;
37593;SDS011;23441;50.856;6.076;2023-04-06T12:18:23;19.67;;;11.18;;
37593;SDS011;23441;50.856;6.076;2023-04-06T12:20:50;15.70;;;10.48;;
37593;SDS011;23441;50.856;6.076;2023-04-06T12:23:16;18.83;;;11.43;;
37593;SDS011;23441;50.856;6.076;2023-04-06T12:25:42;16.40;;;11.23;;
37593;SDS011;23441;50.856;6.076;2023-04-06T12:28:08;19.50;;;10.73;;
37593;SDS011;23441;50.856;6.076;2023-04-06T12:30:36;17.45;;;11.48;;
37593;SDS011;23441;50.856;6.076;2023-04-06T12:33:02;17.50;;;11.48;;
37593;SDS011;23441;50.856;6.076;2023-04-06T12:35:28;18.10;;;11.63;;
37593;SDS011;23441;50.856;6.076;2023-04-06T12:37:54;17.00;;;10.40;;
37593;SDS011;23441;50.856;6.076;2023-04-06T12:40:20;15.65;;;9.88;;
37593;SDS011;23441;50.856;6.076;2023-04-06T12:42:46;15.93;;;10.18;;
37593;SDS011;23441;50.856;6.076;2023-04-06T12:45:12;15.48;;;8.80;;
37593;SDS011;23441;50.856;6.076;2023-04-06T12:47:37;14.93;;;9.68;;
37593;SDS011;23441;50.856;6.076;2023-04-06T12:50:04;18.15;;;10.68;;
37593;SDS011;23441;50.856;6.076;2023-04-06T12:52:33;15.45;;;9.73;;
37593;SDS011;23441;50.856;6.076;2023-04-06T12:55:00;14.43;;;9.25;;
37593;SDS011;23441;50.856;6.076;2023-04-06T12:57:27;14.85;;;8.70;;
37593;SDS011;23441;50.856;6.076;2023-04-06T12:59:53;15.38;;;9.27;;
37593;SDS011;23441;50.856;6.076;2023-04-06T13:02:18;12.32;;;8.05;;
37593;SDS011;23441;50.856;6.076;2023-04-06T13:04:48;12.82;;;8.27;;
37593;SDS011;23441;50.856;6.076;2023-04-06T13:07:15;13.63;;;8.35;;
37593;SDS011;23441;50.856;6.076;2023-04-06T13:09:41;12.95;;;7.53;;
37593;SDS011;23441;50.856;6.076;2023-04-06T13:12:06;12.48;;;8.27;;
37593;SDS011;23441;50.856;6.076;2023-04-06T13:14:32;14.32;;;8.73;;
37593;SDS011;23441;50.856;6.076;2023-04-06T13:16:58;13.10;;;8.60;;
37593;SDS011;23441;50.856;6.076;2023-04-06T13:19:23;11.82;;;7.90;;
37593;SDS011;23441;50.856;6.076;2023-04-06T13:21:50;11.65;;;7.65;;
37593;SDS011;23441;50.856;6.076;2023-04-06T13:24:16;12.18;;;7.88;;
37593;SDS011;23441;50.856;6.076;2023-04-06T13:26:41;12.68;;;8.07;;
37593;SDS011;23441;50.856;6.076;2023-04-06T13:29:07;11.98;;;8.52;;
37593;SDS011;23441;50.856;6.076;2023-04-06T13:31:33;13.40;;;7.47;;
37593;SDS011;23441;50.856;6.076;2023-04-06T13:33:58;12.10;;;7.72;;
37593;SDS011;23441;50.856;6.076;2023-04-06T13:36:24;14.40;;;8.10;;
37593;SDS011;23441;50.856;6.076;2023-04-06T13:38:51;11.75;;;6.32;;
37593;SDS011;23441;50.856;6.076;2023-04-06T13:41:18;9.23;;;6.57;;
37593;SDS011;23441;50.856;6.076;2023-04-06T13:43:46;10.57;;;7.22;;
37593;SDS011;23441;50.856;6.076;2023-04-06T13:46:11;9.60;;;6.88;;
37593;SDS011;23441;50.856;6.076;2023-04-06T13:48:37;12.40;;;7.32;;
37593;SDS011;23441;50.856;6.076;2023-04-06T13:51:09;11.55;;;7.07;;
37593;SDS011;23441;50.856;6.076;2023-04-06T13:53:36;12.48;;;7.45;;
37593;SDS011;23441;50.856;6.076;2023-04-06T13:56:01;14.77;;;7.25;;
37593;SDS011;23441;50.856;6.076;2023-04-06T13:58:27;11.13;;;6.82;;
37593;SDS011;23441;50.856;6.076;2023-04-06T14:00:53;10.18;;;7.00;;
37593;SDS011;23441;50.856;6.076;2023-04-06T14:03:20;11.35;;;7.35;;
37593;SDS011;23441;50.856;6.076;2023-04-06T14:05:47;14.23;;;7.38;;
37593;SDS011;23441;50.856;6.076;2023-04-06T14:08:12;12.32;;;7.28;;
37593;SDS011;23441;50.856;6.076;2023-04-06T14:10:38;10.68;;;7.60;;
37593;SDS011;23441;50.856;6.076;2023-04-06T14:13:07;10.60;;;7.13;;
37593;SDS011;23441;50.856;6.076;2023-04-06T14:15:33;8.25;;;6.32;;
37593;SDS011;23441;50.856;6.076;2023-04-06T14:18:00;11.57;;;7.57;;
37593;SDS011;23441;50.856;6.076;2023-04-06T14:20:26;12.82;;;7.65;;
37593;SDS011;23441;50.856;6.076;2023-04-06T14:22:52;13.63;;;7.18;;
37593;SDS011;23441;50.856;6.076;2023-04-06T14:25:19;11.55;;;7.28;;
37593;SDS011;23441;50.856;6.076;2023-04-06T14:27:45;11.73;;;6.65;;
37593;SDS011;23441;50.856;6.076;2023-04-06T14:30:10;11.52;;;6.65;;
37593;SDS011;23441;50.856;6.076;2023-04-06T14:32:37;11.27;;;7.75;;
37593;SDS011;23441;50.856;6.076;2023-04-06T14:35:05;11.95;;;6.53;;
37593;SDS011;23441;50.856;6.076;2023-04-06T14:37:31;9.25;;;5.90;;
37593;SDS011;23441;50.856;6.076;2023-04-06T14:39:57;9.63;;;6.20;;